ASN logo
ASN Wikibase Occurrence # 237168
Last updated: 18 August 2020
This information is added by users of ASN. Neither ASN nor the Flight Safety Foundation are responsible for the completeness or correctness of this information. If you feel this information is incomplete or incorrect, you can submit corrected information.

Date:22-MAY-2020
Time:12:57 UTC
Type:Silhouette image of generic ATP model; specific model in this crash may look slightly different
British Aerospace ATP-F (LFD)
Owner/operator:West Air Europe
Registration: SE-MAO
C/n / msn: 2011
Fatalities:Fatalities: 0 / Occupants:
Other fatalities:0
Aircraft damage: None
Location:Birmingham Airport (EGBB) -   United Kingdom
Phase: Landing
Nature:Cargo
Departure airport:Guernsey Airport, Channel Islands (GCI/EGJB)
Destination airport:Birmingham International Airport (BHX/EGBB)
Narrative:
West Air Europe flight SWN425, a BAe ATP cargo plane, suffered a temporary runway excursion after landing on runway 33 at Birmingham Airport, U.K.
The flight was arriving from Guernsey, Channel Islands, and was approaching runway 33 at 12:44 UTC in strong gusty crosswinds. The aircraft floated above the runway and briefly touch down when the flight crew initiated a go-around.
The seconds approach was flown in similar conditions and the aircraft was still crabbing to the left as it touched down. It swerved to the left off the side of the runway before the pilot was able to regain directional control. The aircraft steered onto the runway again and taxied to the apron.

Wind conditions reported around the incident time (1245Z and 1257Z)
EGBB 221150Z 23015G25KT 190V270 9999 SCT047 17/05 Q1013
EGBB 221320Z 23018G31KT 190V280 CAVOK 18/04 Q1013

Sources:

https://youtu.be/H5mnCEMzV-0

Second approach and landing:

First approach and landing attempt:

Revision history:

Date/timeContributorUpdates
20-Jun-2020 19:26 harro Added
20-Jun-2020 19:28 harro Updated [Aircraft type, Narrative]

Corrections or additions? ... Edit this accident description